Artesia ASC Data

Date Time Air Temperature Relative Humidity Dewpoint Windchill Heat Index Wind Speed Wind Dir. Rain Solar Radiation Soil Temperature
2m 2m 3m 3m 10cm
US/Mountain F % F F F MPH deg in MJ/m^2 F
max avg avg
2021-09-15 00:05:00 67.1 55.7 50.7 67.1 67.1 4.0 4.6 4.0 144.5 151.6 0.00 0.0000000 77.9
2021-09-15 00:10:00 67.3 55.7 50.9 67.3 67.3 3.8 4.4 4.0 144.0 147.8 0.00 0.0000000 77.8
2021-09-15 00:15:00 67.2 55.7 50.8 67.2 67.2 3.5 4.4 4.0 147.4 150.1 0.00 0.0000000 77.8
2021-09-15 00:20:00 67.2 55.7 50.8 67.2 67.2 3.3 3.8 3.3 133.1 137.6 0.00 0.0000000 77.8
2021-09-15 00:25:00 67.8 54.5 50.8 67.8 67.8 5.1 5.3 4.0 135.6 129.9 0.00 0.0000000 77.7
2021-09-15 00:30:00 68.6 52.8 50.7 68.6 68.6 5.5 6.2 5.4 134.6 133.0 0.00 0.0000000 77.7
2021-09-15 00:35:00 68.6 52.7 50.7 68.6 68.6 5.1 6.3 5.6 134.7 135.4 0.00 0.0000000 77.6
2021-09-15 00:40:00 68.6 52.7 50.7 68.6 68.6 5.8 6.2 5.4 132.0 131.9 0.00 0.0000000 77.6
2021-09-15 00:45:00 68.7 54.0 51.4 68.7 68.7 5.3 6.5 5.4 128.4 130.5 0.00 0.0000000 77.6
2021-09-15 00:50:00 69.0 53.8 51.5 69.0 69.0 6.5 6.5 5.8 123.8 123.4 0.00 0.0000000 77.5
2021-09-15 00:55:00 69.0 54.1 51.7 69.0 69.0 7.2 7.2 6.2 139.6 124.2 0.00 0.0000000 77.5
2021-09-15 01:00:00 69.1 53.7 51.6 69.1 69.1 6.0 8.0 6.7 133.3 126.6 0.00 0.0000000 77.5
2021-09-15 01:05:00 68.9 53.9 51.5 68.9 68.9 7.2 8.0 6.6 126.6 131.5 0.00 0.0000000 77.4
2021-09-15 01:10:00 69.0 54.7 52.0 69.0 69.0 7.4 8.3 6.8 134.2 132.5 0.00 0.0000000 77.4
2021-09-15 01:15:00 68.7 54.8 51.8 68.7 68.7 8.1 8.5 6.9 128.4 131.0 0.00 0.0000000 77.3
2021-09-15 01:20:00 69.3 54.1 51.9 69.3 69.3 6.9 8.0 7.1 136.8 137.0 0.00 0.0000000 77.3
2021-09-15 01:25:00 69.4 53.7 51.9 69.4 69.4 6.2 7.8 6.9 138.2 134.9 0.00 0.0000000 77.3
2021-09-15 01:30:00 69.7 53.0 51.9 69.7 69.7 7.4 8.3 6.9 127.7 131.8 0.00 0.0000000 77.2
2021-09-15 01:35:00 70.4 52.1 52.0 70.4 70.4 7.4 8.8 7.1 129.0 130.2 0.00 0.0000000 77.2
2021-09-15 01:40:00 70.9 52.0 52.4 70.9 70.9 6.0 9.7 7.0 123.4 134.4 0.00 0.0000000 77.2
2021-09-15 01:45:00 70.7 51.9 52.2 70.7 70.7 8.0 8.7 7.2 118.4 133.7 0.00 0.0000000 77.1
2021-09-15 01:50:00 70.8 52.3 52.4 70.8 70.8 8.5 8.8 7.7 133.3 128.0 0.00 0.0000000 77.1
2021-09-15 01:55:00 70.7 52.3 52.4 70.7 70.7 10.6 10.6 8.5 113.5 123.6 0.00 0.0000000 77.1
2021-09-15 02:00:00 70.8 52.3 52.5 70.8 70.8 10.8 10.8 8.7 132.3 125.8 0.00 0.0000000 77.1
2021-09-15 02:05:00 70.7 52.8 52.6 70.7 70.7 9.2 11.2 8.9 136.3 126.8 0.00 0.0000000 77.1
2021-09-15 02:10:00 70.5 53.2 52.7 70.5 70.5 8.8 9.9 8.4 134.9 130.4 0.00 0.0000000 77.0
2021-09-15 02:15:00 70.5 53.5 52.8 70.5 70.5 10.5 10.5 8.7 116.7 126.9 0.00 0.0000000 77.0
2021-09-15 02:20:00 71.0 52.8 52.8 71.0 71.0 9.4 12.8 9.4 136.2 129.2 0.00 0.0000000 77.0
2021-09-15 02:25:00 70.9 52.8 52.8 70.9 70.9 9.0 12.8 9.5 122.1 127.1 0.00 0.0000000 76.9
2021-09-15 02:30:00 71.0 53.1 53.1 71.0 71.0 8.0 12.1 9.7 126.9 130.4 0.00 0.0000000 76.9
2021-09-15 02:35:00 71.4 53.3 53.5 71.4 71.4 9.9 12.1 9.7 115.9 129.2 0.00 0.0000000 76.9
2021-09-15 02:40:00 71.4 53.5 53.6 71.4 71.4 9.4 12.4 10.0 140.7 126.9 0.00 0.0000000 76.9
2021-09-15 02:45:00 71.3 54.0 53.8 71.3 71.3 12.1 12.1 10.3 130.6 122.5 0.00 0.0000000 76.8
2021-09-15 02:50:00 71.2 54.2 53.8 71.2 71.2 11.0 12.2 10.0 136.0 126.1 0.00 0.0000000 76.8
2021-09-15 02:55:00 71.1 54.3 53.8 71.1 71.1 8.8 11.9 9.9 133.9 132.5 0.00 0.0000000 76.8
2021-09-15 03:00:00 71.2 54.5 54.0 71.2 71.2 8.0 12.4 10.0 141.1 132.2 0.00 0.0000000 76.8
2021-09-15 03:05:00 71.0 55.3 54.2 71.0 71.0 9.2 10.8 9.1 130.0 135.6 0.00 0.0000000 76.7
2021-09-15 03:10:00 70.6 55.4 53.9 70.6 70.6 7.6 11.0 8.9 132.4 137.9 0.00 0.0000000 76.7
2021-09-15 03:15:00 70.4 56.2 54.1 70.4 70.4 7.8 10.5 7.9 141.5 139.3 0.00 0.0000000 76.7
2021-09-15 03:20:00 70.1 56.7 54.0 70.1 70.1 6.7 9.6 7.5 143.2 142.5 0.00 0.0000000 76.7
2021-09-15 03:25:00 69.8 57.1 53.9 69.8 69.8 7.1 8.7 7.0 146.8 144.4 0.00 0.0000000 76.7
2021-09-15 03:30:00 69.6 57.3 53.9 69.6 69.6 7.8 8.3 7.2 138.0 143.1 0.00 0.0000000 76.6
2021-09-15 03:35:00 69.2 57.7 53.7 69.2 69.2 5.8 9.7 6.5 145.1 141.9 0.00 0.0000000 76.6
2021-09-15 03:40:00 69.2 58.5 54.1 69.2 69.2 5.8 7.8 6.2 132.8 139.2 0.00 0.0000000 76.6
2021-09-15 03:45:00 68.5 59.6 53.9 68.5 68.5 4.9 6.3 5.0 121.9 135.2 0.00 0.0000000 76.6
2021-09-15 03:50:00 68.1 60.2 53.8 68.1 68.1 4.4 6.0 4.9 136.3 128.0 0.00 0.0000000 76.5
2021-09-15 03:55:00 68.0 61.1 54.1 68.0 68.0 3.7 4.9 3.7 121.5 130.4 0.00 0.0000000 76.6
2021-09-15 04:00:00 67.7 61.3 53.9 67.7 67.7 2.6 4.4 3.0 129.7 123.4 0.00 0.0000000 76.5
2021-09-15 04:05:00 67.8 61.4 54.1 67.8 67.8 2.8 3.0 2.4 82.1 87.7 0.00 0.0000000 76.5
2021-09-15 04:10:00 67.8 61.2 54.0 67.8 67.8 4.0 4.0 3.4 45.9 49.8 0.00 0.0000000 76.5
2021-09-15 04:15:00 67.5 62.2 54.1 67.5 67.5 3.5 4.2 3.5 15.1 31.0 0.00 0.0000000 76.4
2021-09-15 04:20:00 66.4 64.9 54.2 66.4 66.4 8.7 8.7 4.9 342.0 359.6 0.00 0.0000000 76.4
2021-09-15 04:25:00 66.3 66.2 54.7 66.3 66.3 7.8 12.2 8.1 1.4 2.8 0.00 0.0000000 76.4
2021-09-15 04:30:00 66.7 67.6 55.6 66.7 66.7 4.4 9.6 5.1 72.2 37.6 0.00 0.0000000 76.4
2021-09-15 04:35:00 66.7 68.1 55.8 66.7 66.7 2.6 4.4 2.8 14.7 26.5 0.00 0.0000000 76.4
2021-09-15 04:40:00 66.7 68.8 56.2 66.7 66.7 2.4 5.5 3.1 6.8 8.5 0.00 0.0000000 76.3
2021-09-15 04:45:00 66.8 68.8 56.2 66.8 66.8 3.8 5.6 3.7 44.1 20.3 0.00 0.0000000 76.3
2021-09-15 04:50:00 67.3 68.6 56.6 67.3 67.3 3.3 7.2 4.2 84.7 64.3 0.00 0.0000000 76.3
2021-09-15 04:55:00 67.2 69.0 56.6 67.2 67.2 3.7 4.6 3.2 62.1 64.9 0.00 0.0000000 76.3
2021-09-15 05:00:00 66.9 69.9 56.7 66.9 66.9 4.0 5.1 3.5 35.8 51.4 0.00 0.0000000 76.2
2021-09-15 05:05:00 66.6 70.9 56.9 66.6 66.6 2.8 4.6 2.9 56.3 63.6 0.00 0.0000000 76.2
2021-09-15 05:10:00 66.6 71.3 57.0 66.6 66.6 3.1 3.8 2.7 82.3 76.2 0.00 0.0000000 76.2
2021-09-15 05:15:00 66.9 70.5 56.9 66.9 66.9 5.1 6.5 5.0 93.9 89.0 0.00 0.0000000 76.2
2021-09-15 05:20:00 67.2 71.0 57.5 67.2 67.2 6.0 6.9 5.5 87.7 89.0 0.00 0.0000000 76.1
2021-09-15 05:25:00 67.4 71.4 57.8 67.4 67.4 5.3 7.1 5.8 92.9 93.2 0.00 0.0000000 76.1
2021-09-15 05:30:00 67.5 71.8 58.1 67.5 67.5 5.3 6.3 5.1 73.7 87.6 0.00 0.0000000 76.1
2021-09-15 05:35:00 67.7 70.2 57.7 67.7 67.7 5.3 5.5 4.5 89.1 86.6 0.00 0.0000000 76.1
2021-09-15 05:40:00 66.9 72.7 57.9 66.9 66.9 5.8 6.2 4.6 91.0 102.8 0.00 0.0000000 76.1
2021-09-15 05:45:00 67.5 71.8 58.1 67.5 67.5 4.7 6.7 5.5 97.8 88.6 0.00 0.0000000 76.0
2021-09-15 05:50:00 67.2 71.8 57.8 67.2 67.2 5.6 7.2 5.9 99.6 104.2 0.00 0.0000000 76.0
2021-09-15 05:55:00 67.1 71.8 57.7 67.1 67.1 7.4 8.7 6.5 109.1 100.4 0.00 0.0000000 76.0
2021-09-15 06:00:00 67.6 71.4 58.0 67.6 67.6 6.2 8.1 6.5 98.4 96.5 0.00 0.0000000 76.0
2021-09-15 06:05:00 67.1 72.0 57.7 67.1 67.1 6.3 8.0 6.1 81.1 93.1 0.00 0.0000000 76.0
2021-09-15 06:10:00 67.4 72.0 58.0 67.4 67.4 3.7 6.3 4.2 110.9 77.8 0.00 0.0000000 76.0
2021-09-15 06:15:00 66.8 73.1 57.8 66.8 66.8 3.7 4.9 4.0 111.5 107.8 0.00 0.0000000 76.0
2021-09-15 06:20:00 65.8 75.5 57.8 65.8 65.8 2.8 4.6 3.1 123.1 117.5 0.00 0.0000000 75.9
2021-09-15 06:25:00 65.2 76.3 57.5 65.2 65.2 4.0 4.4 3.4 122.1 128.7 0.00 0.0000000 75.9
2021-09-15 06:30:00 65.1 76.7 57.6 65.1 65.1 1.3 5.1 2.8 135.9 137.6 0.00 0.0010000 75.9
2021-09-15 06:35:00 65.1 77.4 57.8 65.1 65.1 0.0 1.5 0.5 210.7 158.3 0.00 0.0020000 75.9
2021-09-15 06:40:00 64.9 78.0 57.8 64.9 64.9 0.0 1.0 0.1 329.3 226.5 0.00 0.0030000 75.9
2021-09-15 06:45:00 64.9 78.4 58.0 64.9 64.9 1.9 2.6 1.9 289.8 309.0 0.00 0.0060000 75.8
2021-09-15 06:50:00 65.0 77.3 57.8 65.0 65.0 0.0 2.1 0.6 250.5 280.8 0.00 0.0110000 75.8
2021-09-15 06:55:00 64.8 78.3 57.9 64.8 64.8 0.0 0.0 0.0 347.0 0.0 0.00 0.0160000 75.8
2021-09-15 07:00:00 65.1 78.1 58.1 65.1 65.1 1.9 1.9 0.9 116.8 61.9 0.00 0.0230000 75.8
2021-09-15 07:05:00 65.3 76.6 57.7 65.3 65.3 2.1 2.2 1.9 102.9 117.6 0.00 0.0310000 75.8
2021-09-15 07:10:00 65.7 75.0 57.6 65.7 65.7 1.7 2.1 1.6 192.5 130.2 0.00 0.0400000 75.7
2021-09-15 07:15:00 65.1 78.0 58.1 65.1 65.1 2.8 3.5 2.3 152.8 178.5 0.00 0.0390000 75.7
2021-09-15 07:20:00 65.2 78.2 58.2 65.2 65.2 2.6 2.6 2.0 187.5 184.1 0.00 0.0700000 75.7
2021-09-15 07:25:00 65.9 76.8 58.4 65.9 65.9 2.2 2.6 2.2 222.2 218.9 0.00 0.0690000 75.7
2021-09-15 07:30:00 66.3 76.0 58.5 66.3 66.3 1.9 3.5 2.9 213.7 206.7 0.00 0.0530000 75.7
2021-09-15 07:35:00 66.5 76.0 58.7 66.5 66.5 2.2 3.1 2.4 221.1 208.3 0.00 0.0680000 75.6
2021-09-15 07:40:00 66.9 75.5 58.9 66.9 66.9 1.7 3.5 2.1 220.9 209.3 0.00 0.0580000 75.6
2021-09-15 07:45:00 67.6 74.7 59.3 67.6 67.6 1.7 2.2 1.7 197.5 228.1 0.00 0.1590000 75.6
2021-09-15 07:50:00 68.4 73.5 59.6 68.4 68.4 2.6 4.0 2.5 211.5 196.4 0.00 0.1770000 75.6
2021-09-15 07:55:00 69.0 73.2 60.0 69.0 69.0 3.1 4.2 3.4 168.3 181.2 0.00 0.0740000 75.6
2021-09-15 08:00:00 68.9 72.7 59.8 68.9 68.9 4.0 4.6 3.3 218.5 197.1 0.00 0.1130000 75.6
2021-09-15 08:05:00 68.8 73.1 59.8 68.8 68.8 3.8 4.9 3.8 207.9 206.4 0.00 0.0960000 75.5
2021-09-15 08:10:00 68.8 73.7 60.1 68.8 68.8 2.6 5.5 3.7 218.3 214.0 0.00 0.1220000 75.5
2021-09-15 08:15:00 69.0 73.0 60.0 69.0 69.0 3.3 4.9 3.5 202.6 230.3 0.00 0.1390000 75.5
2021-09-15 08:20:00 69.4 72.2 60.0 69.4 69.4 3.5 4.7 3.1 215.5 200.0 0.00 0.1470000 75.5
2021-09-15 08:25:00 69.5 72.3 60.2 69.5 69.5 3.7 4.7 3.3 224.2 199.9 0.00 0.2490000 75.5
2021-09-15 08:30:00 70.8 69.0 60.1 70.8 70.8 3.5 5.8 3.7 137.0 170.1 0.00 0.3050000 75.5
2021-09-15 08:35:00 70.3 70.6 60.3 70.3 70.3 3.3 4.9 3.2 157.1 148.1 0.00 0.1730000 75.5
2021-09-15 08:40:00 69.9 71.5 60.3 69.9 69.9 3.7 4.6 3.6 156.5 144.9 0.00 0.1840000 75.5
2021-09-15 08:45:00 70.0 71.4 60.3 70.0 70.0 1.7 5.6 3.0 11.2 118.7 0.00 0.1870000 75.5
2021-09-15 08:50:00 70.1 72.1 60.7 70.1 70.1 2.1 4.7 2.7 135.4 163.4 0.00 0.1950000 75.5
2021-09-15 08:55:00 70.3 70.4 60.2 70.3 70.3 3.0 3.5 2.5 95.0 89.9 0.00 0.4920000 75.5
2021-09-15 09:00:00 72.2 66.9 60.6 72.2 72.2 3.1 3.1 2.2 160.6 86.0 0.00 0.4460000 75.5
2021-09-15 09:05:00 72.3 66.6 60.5 72.3 72.3 3.3 6.0 2.4 112.0 173.2 0.00 0.2390000 75.5
2021-09-15 09:10:00 71.4 68.5 60.5 71.4 71.4 2.2 4.2 2.8 218.2 129.6 0.00 0.1330000 75.5
2021-09-15 09:15:00 70.9 69.9 60.6 70.9 70.9 3.0 4.0 2.7 148.3 144.5 0.00 0.1270000 75.5
2021-09-15 09:20:00 71.2 69.6 60.8 71.2 71.2 5.3 6.0 3.9 108.1 123.0 0.00 0.1270000 75.5
2021-09-15 09:25:00 71.3 69.4 60.8 71.3 71.3 2.4 4.4 2.5 148.7 123.8 0.00 0.1230000 75.5
2021-09-15 09:30:00 71.2 68.9 60.5 71.2 71.2 1.2 5.1 2.7 73.8 130.7 0.00 0.2150000 75.5
2021-09-15 09:35:00 72.5 67.9 61.3 72.5 72.5 1.9 3.0 2.0 319.5 332.4 0.00 0.5110000 75.5
2021-09-15 09:40:00 74.5 67.5 63.1 74.5 74.5 2.8 3.3 1.9 296.5 273.4 0.00 0.5270000 75.5
2021-09-15 09:45:00 73.3 63.3 60.1 73.3 73.3 1.7 4.7 2.9 325.2 104.9 0.00 0.5380000 75.5
2021-09-15 09:50:00 72.4 62.4 58.8 72.4 72.4 4.6 5.6 3.5 190.4 84.1 0.00 0.5500000 75.6
2021-09-15 09:55:00 74.2 63.0 60.8 74.2 74.2 3.1 5.5 4.1 75.4 131.6 0.00 0.5600000 75.6
2021-09-15 10:00:00 74.8 62.8 61.3 74.8 74.8 4.6 6.7 4.3 133.8 120.0 0.00 0.5770000 75.6
2021-09-15 10:05:00 75.3 60.6 60.7 75.3 75.3 2.8 4.4 2.8 218.3 172.4 0.00 0.5870000 75.6
2021-09-15 10:10:00 77.6 60.8 63.0 77.6 77.6 7.8 7.8 4.2 177.1 192.7 0.00 0.6020000 75.7
2021-09-15 10:15:00 75.6 60.0 60.8 75.6 75.6 8.1 9.0 6.1 142.0 152.5 0.00 0.6260000 75.7
2021-09-15 10:20:00 75.4 60.8 60.9 75.4 75.4 7.2 8.3 5.6 106.5 114.1 0.00 0.6230000 75.7
2021-09-15 10:25:00 74.9 62.4 61.2 74.9 74.9 5.3 11.2 6.8 145.2 128.8 0.00 0.6330000 75.7
2021-09-15 10:30:00 75.4 58.1 59.7 75.4 75.4 2.1 4.6 2.2 37.6 169.6 0.00 0.6500000 75.7
2021-09-15 10:35:00 74.3 58.3 58.7 74.3 74.3 5.6 9.4 4.6 163.8 137.8 0.00 0.6700000 75.7
2021-09-15 10:40:00 77.3 57.4 61.1 77.3 77.3 5.3 8.0 5.0 162.0 167.4 0.00 0.6890000 75.8
2021-09-15 10:45:00 76.9 57.1 60.6 76.9 76.9 4.7 7.2 4.2 176.3 111.0 0.00 0.7310000 75.8
2021-09-15 10:50:00 77.0 56.0 60.1 77.0 77.0 10.6 10.6 5.3 176.3 178.7 0.00 0.7670000 75.8
2021-09-15 10:55:00 76.4 55.7 59.5 76.4 76.4 3.8 8.3 4.5 161.3 158.9 0.00 0.8240000 75.9
2021-09-15 11:00:00 78.2 54.7 60.6 78.2 78.2 8.3 12.4 8.5 178.5 166.6 0.00 0.8340000 75.9
2021-09-15 11:05:00 77.4 58.2 61.6 77.4 77.4 6.3 9.4 5.6 225.2 162.0 0.00 0.2380000 75.9
2021-09-15 11:10:00 76.0 58.0 60.1 76.0 76.0 2.8 7.6 5.1 88.2 121.6 0.00 0.1740000 76.0
2021-09-15 11:15:00 76.1 57.4 59.9 76.1 76.1 5.1 6.7 4.7 115.2 166.2 0.00 0.2330000 76.0
2021-09-15 11:20:00 75.7 56.4 59.1 75.7 75.7 4.7 11.5 6.8 141.1 144.8 0.00 0.5150000 76.1
2021-09-15 11:25:00 78.5 53.4 60.1 78.5 78.5 6.7 9.2 4.6 196.3 142.9 0.00 0.7680000 76.1
2021-09-15 11:30:00 77.9 56.2 61.0 77.9 77.9 6.0 8.1 5.5 164.5 191.7 0.00 0.7750000 76.2
2021-09-15 11:35:00 78.9 55.7 61.7 78.9 78.9 6.7 8.7 6.0 239.8 163.9 0.00 0.7460000 76.2
2021-09-15 11:40:00 77.0 54.6 59.4 77.0 77.0 9.0 10.5 6.7 181.4 204.1 0.00 0.7890000 76.2
2021-09-15 11:45:00 79.3 52.9 60.6 79.3 79.3 3.5 10.1 7.1 97.9 132.1 0.00 0.7870000 76.3
2021-09-15 11:50:00 81.3 53.1 62.6 81.3 82.4 7.1 8.3 5.8 99.3 99.0 0.00 0.8060000 76.3
2021-09-15 11:55:00 80.1 50.6 60.1 80.1 80.9 6.9 8.7 5.5 173.7 162.1 0.00 0.2510000 76.4
2021-09-15 12:00:00 80.5 49.0 59.6 80.5 81.2 9.2 10.1 5.8 141.1 154.0 0.00 0.8820000 76.4
2021-09-15 12:05:00 82.5 50.2 62.1 82.5 83.3 8.8 9.4 7.1 167.1 156.6 0.00 0.8470000 76.5
2021-09-15 12:10:00 84.5 52.9 65.4 84.5 86.4 6.3 11.0 8.2 146.9 178.3 0.00 0.8320000 76.5
2021-09-15 12:15:00 80.9 50.8 61.0 80.9 81.7 3.1 9.7 6.0 142.5 139.5 0.00 0.8820000 76.6
2021-09-15 12:20:00 78.9 46.2 56.5 78.9 78.9 4.7 5.3 3.7 88.2 142.2 0.00 0.8350000 76.6
2021-09-15 12:25:00 86.2 48.1 64.3 86.2 87.6 10.8 12.2 7.0 123.3 119.1 0.00 0.8080000 76.7
2021-09-15 12:30:00 83.9 50.1 63.3 83.9 85.0 4.7 11.7 8.0 139.4 125.8 0.00 0.7960000 76.7
2021-09-15 12:35:00 84.3 51.6 64.6 84.3 85.9 3.0 8.8 5.7 63.2 86.2 0.00 0.7930000 76.8
2021-09-15 12:40:00 81.6 49.8 61.1 81.6 82.3 8.3 9.2 5.8 186.0 108.9 0.00 0.2450000 76.9
2021-09-15 12:45:00 78.6 48.3 57.5 78.6 78.6 6.2 10.6 7.0 163.8 182.3 0.00 0.8130000 76.9
2021-09-15 12:50:00 84.3 46.1 61.3 84.3 84.6 2.2 9.6 3.8 138.7 146.1 0.00 0.8220000 77.0
2021-09-15 12:55:00 83.9 44.5 60.0 83.9 83.9 7.1 9.9 6.8 112.1 137.7 0.00 0.8090000 77.0
2021-09-15 13:00:00 83.4 47.1 61.1 83.4 83.9 4.9 10.5 6.3 111.9 95.2 0.00 0.7970000 77.1
2021-09-15 13:05:00 84.1 45.5 60.8 84.1 84.3 8.5 11.9 9.0 143.1 127.0 0.00 0.7940000 77.2
2021-09-15 13:10:00 83.6 46.9 61.2 83.6 84.1 6.0 13.0 7.7 178.3 139.6 0.00 0.7900000 77.2
2021-09-15 13:15:00 84.5 46.9 62.0 84.5 85.1 11.5 14.4 9.5 190.4 155.4 0.00 0.7890000 77.3
2021-09-15 13:20:00 85.0 47.6 62.9 85.0 85.9 4.4 12.4 8.2 186.5 181.1 0.00 0.7840000 77.3
2021-09-15 13:25:00 82.2 40.7 56.0 82.2 81.7 7.4 10.5 8.0 129.8 150.7 0.00 0.7980000 77.4
2021-09-15 13:30:00 85.4 41.6 59.5 85.4 85.1 11.0 16.7 10.5 119.4 138.1 0.00 0.8280000 77.5
2021-09-15 13:35:00 85.4 42.1 59.8 85.4 85.2 5.1 15.3 9.7 130.6 127.2 0.00 0.7950000 77.5
2021-09-15 13:40:00 82.0 40.9 55.9 82.0 81.6 9.0 11.9 9.1 135.7 125.7 0.00 0.7750000 77.6
2021-09-15 13:45:00 86.4 43.5 61.6 86.4 86.7 10.5 16.0 12.0 160.5 155.1 0.00 0.7850000 77.7
2021-09-15 13:50:00 85.9 41.6 59.9 85.9 85.7 12.1 13.0 8.3 169.1 174.1 0.00 0.8080000 77.7
2021-09-15 13:55:00 85.8 41.6 59.8 85.8 85.6 13.1 17.2 12.8 171.2 163.9 0.00 0.3570000 77.8
2021-09-15 14:00:00 84.0 44.1 59.9 84.0 84.0 7.2 12.6 9.5 176.1 174.2 0.00 0.6300000 77.9
2021-09-15 14:05:00 85.9 42.5 60.5 85.9 85.8 9.2 10.1 5.8 156.2 161.2 0.00 0.7760000 77.9
2021-09-15 14:10:00 87.8 43.2 62.7 87.8 88.6 8.8 13.5 9.4 177.2 154.2 0.00 0.7510000 78.0
2021-09-15 14:15:00 85.6 44.7 61.7 85.6 86.0 7.8 14.6 9.6 173.1 155.1 0.00 0.7360000 78.1
2021-09-15 14:20:00 87.9 45.3 64.1 87.9 89.3 6.2 12.2 7.7 216.2 203.0 0.00 0.7310000 78.1
2021-09-15 14:25:00 87.1 41.2 60.7 87.1 87.1 10.5 14.4 9.1 220.9 178.4 0.00 0.7210000 78.2
2021-09-15 14:30:00 86.5 41.0 60.0 86.5 86.2 11.0 13.9 9.2 202.6 208.5 0.00 0.7140000 78.2
2021-09-15 14:35:00 86.4 41.6 60.4 86.4 86.3 9.2 17.4 9.4 161.1 188.4 0.00 0.7080000 78.3
2021-09-15 14:40:00 86.3 43.8 61.7 86.3 86.7 7.6 9.4 5.7 184.8 186.3 0.00 0.7020000 78.4
2021-09-15 14:45:00 85.1 39.6 57.8 85.1 85.1 7.4 13.0 9.5 124.5 160.4 0.00 0.6930000 78.4
2021-09-15 14:50:00 86.7 42.2 61.1 86.7 86.8 7.4 14.9 7.7 202.5 184.7 0.00 0.6850000 78.5
2021-09-15 14:55:00 84.7 40.4 58.0 84.7 84.1 3.3 8.7 6.4 238.8 230.5 0.00 0.6790000 78.6
2021-09-15 15:00:00 86.9 37.9 58.2 86.9 86.9 11.7 14.9 10.3 147.6 174.9 0.00 0.6680000 78.6
2021-09-15 15:05:00 84.9 40.0 57.9 84.9 84.2 7.6 10.6 6.9 213.8 158.1 0.00 0.6590000 78.7
2021-09-15 15:10:00 88.0 42.1 62.1 88.0 88.4 13.0 14.9 10.7 144.2 166.6 0.00 0.6500000 78.8
2021-09-15 15:15:00 85.1 37.6 56.4 85.1 85.1 4.7 13.0 8.4 266.9 163.4 0.00 0.6140000 78.9
2021-09-15 15:20:00 87.2 39.0 59.2 87.2 87.2 9.0 11.9 8.2 177.8 186.8 0.00 0.6350000 78.9
2021-09-15 15:25:00 87.2 38.3 58.7 87.2 87.2 6.3 15.8 9.7 146.6 157.9 0.00 0.4910000 79.0
2021-09-15 15:30:00 85.9 36.1 56.0 85.9 85.9 6.9 10.5 6.6 160.3 143.2 0.00 0.6210000 79.1
2021-09-15 15:35:00 88.8 40.2 61.5 88.8 89.0 10.8 15.8 9.5 177.6 148.0 0.00 0.5710000 79.1
2021-09-15 15:40:00 87.5 40.1 60.3 87.5 87.3 10.8 13.7 9.7 215.1 193.7 0.00 0.6100000 79.2
2021-09-15 15:45:00 86.4 40.6 59.7 86.4 86.1 6.3 12.4 7.8 186.8 198.0 0.00 0.3620000 79.3
2021-09-15 15:50:00 87.8 39.1 59.8 87.8 87.8 8.1 8.1 4.3 303.1 220.2 0.00 0.4530000 79.3
2021-09-15 15:55:00 87.3 37.4 58.1 87.3 87.3 5.8 18.1 8.9 129.1 152.2 0.00 0.4090000 79.4
2021-09-15 16:00:00 86.5 38.5 58.2 86.5 86.5 9.7 10.5 4.9 167.9 166.3 0.00 0.1730000 79.4
2021-09-15 16:05:00 85.9 40.2 58.9 85.9 85.4 7.6 11.7 8.8 198.2 192.1 0.00 0.2120000 79.4
2021-09-15 16:10:00 86.7 37.9 58.0 86.7 86.7 6.9 10.5 7.1 189.3 174.1 0.00 0.5360000 79.5
2021-09-15 16:15:00 87.8 38.8 59.6 87.8 87.8 11.9 12.8 9.4 177.9 175.8 0.00 0.5090000 79.6
2021-09-15 16:20:00 87.4 37.6 58.4 87.4 87.4 7.4 14.9 9.0 119.5 171.8 0.00 0.1910000 79.6
2021-09-15 16:25:00 86.7 38.2 58.2 86.7 86.7 4.0 9.6 5.3 142.7 132.1 0.00 0.1700000 79.6
2021-09-15 16:30:00 86.3 40.9 59.7 86.3 85.9 7.1 7.6 6.0 217.9 168.6 0.00 0.1470000 79.7
2021-09-15 16:35:00 85.8 40.7 59.2 85.8 85.4 9.7 12.1 7.9 183.0 184.5 0.00 0.1550000 79.7
2021-09-15 16:40:00 85.8 39.2 58.1 85.8 85.8 11.0 11.0 9.0 187.4 178.1 0.00 0.1650000 79.7
2021-09-15 16:45:00 85.7 39.5 58.3 85.7 85.7 8.7 10.3 8.6 199.4 180.9 0.00 0.1890000 79.8
2021-09-15 16:50:00 86.0 39.7 58.6 86.0 86.0 8.0 10.6 7.9 194.3 199.0 0.00 0.1570000 79.8
2021-09-15 16:55:00 85.8 39.2 58.1 85.8 85.8 6.7 10.1 7.6 223.4 208.7 0.00 0.1030000 79.8
2021-09-15 17:00:00 85.4 39.1 57.7 85.4 85.4 10.6 10.8 7.6 188.5 199.1 0.00 0.0740000 79.8
2021-09-15 17:05:00 85.0 39.7 57.8 85.0 85.0 6.7 9.7 7.8 213.2 191.2 0.00 0.0770000 79.9
2021-09-15 17:10:00 84.9 40.0 57.9 84.9 84.2 9.4 9.4 6.6 210.2 194.8 0.00 0.0790000 79.9
2021-09-15 17:15:00 85.2 39.1 57.6 85.2 85.2 6.3 10.6 7.5 192.9 203.9 0.00 0.0750000 79.9
2021-09-15 17:20:00 85.0 40.1 58.1 85.0 84.4 9.2 9.6 7.5 173.5 192.1 0.00 0.0680000 79.9
2021-09-15 17:25:00 84.7 40.0 57.8 84.7 84.1 8.7 10.5 7.8 199.7 192.1 0.00 0.0630000 79.9
2021-09-15 17:30:00 84.3 40.6 57.8 84.3 83.7 7.4 9.4 7.3 178.6 181.0 0.00 0.0600000 80.0
2021-09-15 17:35:00 84.5 40.7 58.0 84.5 83.9 8.1 9.4 7.9 193.8 180.5 0.00 0.0620000 80.0
2021-09-15 17:40:00 84.3 40.6 57.7 84.3 83.7 7.6 9.4 7.3 212.5 184.7 0.00 0.0680000 80.0
2021-09-15 17:45:00 84.6 40.9 58.2 84.6 84.0 6.5 8.5 6.0 182.8 193.2 0.00 0.0700000 80.0
2021-09-15 17:50:00 84.2 42.1 58.7 84.2 83.9 5.6 8.7 6.4 188.1 184.2 0.00 0.0680000 80.0
2021-09-15 17:55:00 84.5 42.8 59.4 84.5 84.2 6.0 8.5 6.5 185.9 183.1 0.00 0.0660000 80.0
2021-09-15 18:00:00 84.2 40.8 57.8 84.2 83.6 6.7 7.8 6.4 149.3 178.5 0.00 0.0610000 80.0
2021-09-15 18:05:00 84.3 40.6 57.8 84.3 83.7 5.3 6.3 5.0 161.0 160.1 0.00 0.0550000 80.0
2021-09-15 18:10:00 84.3 40.2 57.5 84.3 83.6 4.7 6.2 5.1 141.0 144.0 0.00 0.0570000 80.0
2021-09-15 18:15:00 83.9 42.0 58.4 83.9 83.5 4.7 5.5 4.6 171.1 160.7 0.00 0.1110000 80.0
2021-09-15 18:20:00 84.0 41.8 58.3 84.0 83.6 7.2 7.2 4.8 174.2 176.7 0.00 0.1100000 80.0
2021-09-15 18:25:00 84.1 42.2 58.7 84.1 83.8 4.6 6.3 5.2 171.0 172.4 0.00 0.0410000 80.0
2021-09-15 18:30:00 83.6 41.8 58.0 83.6 83.2 5.3 7.4 5.3 166.5 172.4 0.00 0.0340000 79.9
2021-09-15 18:35:00 83.3 41.9 57.8 83.3 82.9 4.0 5.8 4.5 151.3 162.3 0.00 0.0380000 80.0
2021-09-15 18:40:00 83.1 42.0 57.6 83.1 82.7 3.5 4.7 4.0 137.2 154.3 0.00 0.0290000 79.9
2021-09-15 18:45:00 82.9 42.2 57.6 82.9 82.6 3.7 4.6 3.6 114.5 136.6 0.00 0.0360000 79.9
2021-09-15 18:50:00 82.7 43.0 57.9 82.7 82.4 3.8 4.9 4.0 130.5 129.7 0.00 0.0190000 79.9
2021-09-15 18:55:00 82.0 43.4 57.6 82.0 81.9 3.8 4.7 4.0 133.6 132.5 0.00 0.0110000 79.9
2021-09-15 19:00:00 81.5 44.6 57.8 81.5 81.5 4.4 4.6 4.1 135.9 132.6 0.00 0.0050000 79.9
2021-09-15 19:05:00 80.7 45.2 57.5 80.7 80.9 4.2 4.9 4.3 139.4 133.8 0.00 0.0020000 79.9
2021-09-15 19:10:00 80.2 45.3 57.2 80.2 80.6 5.3 5.6 4.9 135.2 138.5 0.00 0.0010000 79.9
2021-09-15 19:15:00 79.9 45.3 56.8 79.9 79.9 4.7 5.8 4.9 154.0 136.6 0.00 0.0010000 79.9
2021-09-15 19:20:00 79.7 45.4 56.8 79.7 79.7 3.1 4.6 3.8 145.8 144.1 0.00 0.0000000 79.9
2021-09-15 19:25:00 78.8 47.5 57.2 78.8 78.8 3.7 3.8 3.4 160.3 155.1 0.00 0.0000000 79.8
2021-09-15 19:30:00 77.8 48.3 56.7 77.8 77.8 4.9 5.1 4.6 143.6 149.4 0.00 0.0000000 79.8
2021-09-15 19:35:00 77.4 48.7 56.6 77.4 77.4 4.0 5.1 4.4 120.5 137.0 0.00 0.0000000 79.8
2021-09-15 19:40:00 77.7 47.6 56.2 77.7 77.7 3.8 4.6 3.6 132.6 138.7 0.00 0.0000000 79.8
2021-09-15 19:45:00 77.3 48.3 56.3 77.3 77.3 4.2 4.4 3.9 150.5 144.6 0.00 0.0000000 79.8
2021-09-15 19:50:00 76.3 50.7 56.7 76.3 76.3 4.2 4.7 4.3 166.7 160.1 0.00 0.0000000 79.7
2021-09-15 19:55:00 76.3 50.1 56.3 76.3 76.3 2.6 3.8 3.4 179.9 174.1 0.00 0.0000000 79.7
2021-09-15 20:00:00 76.7 48.2 55.6 76.7 76.7 3.3 3.5 3.1 154.0 160.9 0.00 0.0000000 79.7
2021-09-15 20:05:00 76.9 48.0 55.7 76.9 76.9 3.5 4.0 3.7 141.2 147.2 0.00 0.0000000 79.6
2021-09-15 20:10:00 76.4 48.5 55.5 76.4 76.4 3.3 3.5 3.3 142.6 149.7 0.00 0.0000000 79.6
2021-09-15 20:15:00 76.3 49.1 55.8 76.3 76.3 3.0 3.1 3.0 157.2 156.8 0.00 0.0000000 79.6
2021-09-15 20:20:00 75.8 50.0 55.9 75.8 75.8 4.0 4.0 3.3 148.9 153.6 0.00 0.0000000 79.6
2021-09-15 20:25:00 75.0 52.2 56.3 75.0 75.0 4.4 4.7 4.4 151.9 151.9 0.00 0.0000000 79.5
2021-09-15 20:30:00 73.8 54.2 56.2 73.8 73.8 4.4 4.7 4.3 152.5 153.3 0.00 0.0000000 79.5
2021-09-15 20:35:00 73.7 54.6 56.3 73.7 73.7 4.2 4.4 4.1 154.8 157.1 0.00 0.0000000 79.5
2021-09-15 20:40:00 73.1 54.4 55.6 73.1 73.1 3.7 4.4 4.0 158.7 158.9 0.00 0.0000000 79.4
2021-09-15 20:45:00 73.2 54.7 56.0 73.2 73.2 4.0 4.0 3.8 163.6 161.3 0.00 0.0000000 79.4
2021-09-15 20:50:00 72.8 55.5 55.9 72.8 72.8 4.4 4.4 4.0 160.3 162.9 0.00 0.0000000 79.4
2021-09-15 20:55:00 72.4 55.7 55.7 72.4 72.4 3.8 4.4 4.1 157.8 159.0 0.00 0.0000000 79.4
2021-09-15 21:00:00 72.0 56.6 55.7 72.0 72.0 4.4 4.6 4.2 161.2 161.1 0.00 0.0000000 79.3
2021-09-15 21:05:00 71.9 57.0 55.9 71.9 71.9 4.7 5.1 4.6 149.3 155.7 0.00 0.0000000 79.3
2021-09-15 21:10:00 71.9 57.6 56.1 71.9 71.9 4.9 5.5 5.1 156.2 157.5 0.00 0.0000000 79.3
2021-09-15 21:15:00 72.0 57.9 56.4 72.0 72.0 5.1 5.6 5.1 176.0 163.3 0.00 0.0000000 79.2
2021-09-15 21:20:00 72.8 57.1 56.7 72.8 72.8 4.7 6.2 4.8 202.9 176.3 0.00 0.0000000 79.2
2021-09-15 21:25:00 73.7 56.4 57.2 73.7 73.7 4.6 5.8 4.9 188.0 180.9 0.00 0.0000000 79.2
2021-09-15 21:30:00 73.9 55.1 56.8 73.9 73.9 5.6 6.7 5.6 175.5 182.7 0.00 0.0000000 79.1
2021-09-15 21:35:00 74.4 54.1 56.7 74.4 74.4 7.1 7.6 6.1 185.6 182.8 0.00 0.0000000 79.1
2021-09-15 21:40:00 74.7 53.3 56.6 74.7 74.7 7.6 8.3 6.7 175.8 180.0 0.00 0.0000000 79.1
2021-09-15 21:45:00 75.1 54.2 57.5 75.1 75.1 5.1 8.0 6.3 178.4 179.7 0.00 0.0000000 79.0
2021-09-15 21:50:00 74.7 54.2 57.1 74.7 74.7 7.8 7.8 6.0 183.0 178.2 0.00 0.0000000 79.0
2021-09-15 21:55:00 74.4 53.9 56.6 74.4 74.4 5.6 6.3 5.1 111.0 161.9 0.00 0.0000000 79.0
2021-09-15 22:00:00 72.0 59.2 57.0 72.0 72.0 6.9 7.8 6.4 150.5 126.2 0.00 0.0000000 78.9
2021-09-15 22:05:00 73.9 56.4 57.5 73.9 73.9 5.1 8.8 6.3 163.0 154.0 0.00 0.0000000 78.9
2021-09-15 22:10:00 73.5 57.4 57.5 73.5 73.5 4.4 6.3 5.0 118.2 130.5 0.00 0.0000000 78.9
2021-09-15 22:15:00 73.6 57.9 57.8 73.6 73.6 4.9 7.2 5.5 194.4 157.7 0.00 0.0000000 78.8
2021-09-15 22:20:00 73.0 58.9 57.8 73.0 73.0 5.5 5.8 4.9 187.0 177.0 0.00 0.0000000 78.8
2021-09-15 22:25:00 72.8 59.2 57.8 72.8 72.8 4.7 6.2 4.9 168.7 176.7 0.00 0.0000000 78.8
2021-09-15 22:30:00 72.8 58.9 57.6 72.8 72.8 4.2 5.5 4.9 182.1 181.5 0.00 0.0000000 78.7
2021-09-15 22:35:00 72.8 58.1 57.3 72.8 72.8 4.9 5.5 4.7 181.1 187.7 0.00 0.0000000 78.7
2021-09-15 22:40:00 72.8 58.5 57.4 72.8 72.8 5.1 6.2 4.9 152.7 191.9 0.00 0.0000000 78.7
2021-09-15 22:45:00 71.9 60.6 57.5 71.9 71.9 4.2 4.9 4.2 165.0 159.7 0.00 0.0000000 78.6
2021-09-15 22:50:00 70.8 62.5 57.4 70.8 70.8 3.7 4.4 4.1 177.6 174.6 0.00 0.0000000 78.6
2021-09-15 22:55:00 70.6 61.7 56.8 70.6 70.6 3.1 4.0 3.4 165.3 156.7 0.00 0.0000000 78.6
2021-09-15 23:00:00 70.3 62.8 57.0 70.3 70.3 2.4 3.5 3.0 213.5 183.9 0.00 0.0000000 78.5
2021-09-15 23:05:00 71.0 61.2 57.0 71.0 71.0 3.7 3.7 3.1 200.0 208.0 0.00 0.0000000 78.5
2021-09-15 23:10:00 71.0 61.2 56.9 71.0 71.0 3.5 3.8 3.6 210.0 204.2 0.00 0.0000000 78.5
2021-09-15 23:15:00 70.8 61.1 56.7 70.8 70.8 3.7 4.0 3.4 208.2 213.8 0.00 0.0000000 78.4
2021-09-15 23:20:00 70.4 61.8 56.7 70.4 70.4 2.8 3.8 3.1 216.5 215.6 0.00 0.0000000 78.4
2021-09-15 23:25:00 70.2 62.9 56.9 70.2 70.2 2.4 3.5 2.7 159.7 195.2 0.00 0.0000000 78.4
2021-09-15 23:30:00 69.5 63.2 56.4 69.5 69.5 3.5 3.5 2.9 132.5 138.0 0.00 0.0000000 78.3
2021-09-15 23:35:00 69.3 63.9 56.5 69.3 69.3 2.8 3.5 2.9 194.3 158.4 0.00 0.0000000 78.3
2021-09-15 23:40:00 69.1 63.8 56.3 69.1 69.1 3.1 3.8 3.4 218.6 212.5 0.00 0.0000000 78.3
2021-09-15 23:45:00 69.3 64.7 56.9 69.3 69.3 1.7 3.1 2.5 193.7 211.7 0.00 0.0000000 78.2
2021-09-15 23:50:00 69.2 64.8 56.9 69.2 69.2 1.9 2.1 1.9 151.3 159.5 0.00 0.0000000 78.2
2021-09-15 23:55:00 68.6 65.7 56.6 68.6 68.6 2.6 3.7 2.4 93.7 113.4 0.00 0.0000000 78.2
2021-09-16 00:00:00 68.5 66.3 56.8 68.5 68.5 4.6 4.7 3.6 94.4 100.2 0.00 0.0000000 78.2

Data is courtesy of the NM Climate Center. DO NOT USE IN LEGAL PROCEEDINGS.